Time;durP1;ratioP1;P1;durP2;ratioP2;P2;SDS_P1;SDS_P2;PMS_P1;PMS_P2;Temp;Humidity;BMP_temperature;BMP_pressure;BME280_temperature;BME280_humidity;BME280_pressure;Samples;Min_cycle;Max_cycle;Signal;HPM_P1;HPM_P2
2021/09/23 00:01:40;;;;;;;7.05;4.00;;;;;;;6.86;92.70;99308.22;5045555;28;20068;-67
2021/09/23 00:04:31;;;;;;;7.00;3.67;;;;;;;6.79;92.70;99305.56;5046703;28;20023;-67
2021/09/23 00:06:56;;;;;;;9.68;4.63;;;;;;;6.72;94.08;99299.44;5056173;28;20096;-67
2021/09/23 00:09:22;;;;;;;6.22;4.00;;;;;;;6.67;93.82;99305.50;5065511;28;20209;-67
2021/09/23 00:11:47;;;;;;;5.80;3.80;;;;;;;6.68;93.93;99298.53;5057025;28;20089;-67
2021/09/23 00:14:12;;;;;;;7.40;4.75;;;;;;;6.60;94.30;99302.84;5065271;28;20312;-67
2021/09/23 00:16:38;;;;;;;9.02;4.50;;;;;;;6.74;94.57;99295.06;5059301;28;20028;-67
2021/09/23 00:19:04;;;;;;;8.23;4.40;;;;;;;6.60;93.83;99299.34;5053916;28;20017;-67
2021/09/23 00:21:29;;;;;;;7.30;3.90;;;;;;;6.50;93.51;99293.19;5045732;28;20017;-67
2021/09/23 00:23:55;;;;;;;8.18;3.80;;;;;;;6.42;93.30;99283.50;5061163;28;20092;-67
2021/09/23 00:26:21;;;;;;;6.28;3.97;;;;;;;6.44;93.72;99279.19;5064914;28;20024;-67
2021/09/23 00:28:46;;;;;;;8.15;4.50;;;;;;;6.42;93.49;99278.28;5065018;28;20028;-67
2021/09/23 00:31:12;;;;;;;9.10;5.00;;;;;;;6.47;93.79;99281.81;5056921;28;20021;-67
2021/09/23 00:33:37;;;;;;;7.90;4.00;;;;;;;6.34;93.67;99285.22;5045422;28;20051;-67
2021/09/23 00:36:03;;;;;;;7.10;4.25;;;;;;;6.29;93.86;99281.66;5045345;28;20044;-67
2021/09/23 00:38:28;;;;;;;7.18;4.32;;;;;;;6.27;93.66;99283.41;5045181;28;20055;-67
2021/09/23 00:40:54;;;;;;;7.38;4.55;;;;;;;6.34;93.67;99279.97;5057285;28;20021;-67
2021/09/23 00:43:19;;;;;;;6.13;3.72;;;;;;;6.34;93.22;99285.22;5057770;28;20224;-67
2021/09/23 00:45:45;;;;;;;6.60;3.67;;;;;;;6.03;92.97;99278.84;5054793;28;20017;-67
2021/09/23 00:48:10;;;;;;;9.27;4.47;;;;;;;6.04;94.52;99279.72;5064351;28;20039;-67
2021/09/23 00:50:36;;;;;;;6.50;3.75;;;;;;;6.04;94.35;99264.03;5064272;28;20044;-67
2021/09/23 00:53:01;;;;;;;7.63;3.92;;;;;;;6.17;93.89;99268.53;5060764;28;20021;-67
2021/09/23 00:55:27;;;;;;;6.10;3.80;;;;;;;6.16;93.67;99269.38;5044809;28;20053;-67
2021/09/23 00:57:52;;;;;;;8.85;4.47;;;;;;;6.03;93.74;99267.53;5045996;28;20342;-67
2021/09/23 01:00:19;;;;;;;10.57;4.50;;;;;;;5.97;93.79;99272.69;5054996;28;20220;-67
2021/09/23 01:02:44;;;;;;;8.90;4.38;;;;;;;6.05;93.50;99266.66;5064016;28;20033;-66
2021/09/23 01:05:10;;;;;;;5.80;3.70;;;;;;;6.13;93.69;99272.84;5047432;28;20093;-66
2021/09/23 01:07:42;;;;;;;6.50;4.22;;;;;;;5.89;93.78;99263.94;5044223;28;20063;-66
2021/09/23 01:10:08;;;;;;;6.60;3.95;;;;;;;5.86;93.72;99258.66;5044301;28;20021;-66
2021/09/23 01:12:33;;;;;;;4.75;3.20;;;;;;;6.01;94.08;99253.59;5061334;28;20236;-66
2021/09/23 01:15:00;;;;;;;6.43;4.00;;;;;;;6.02;93.88;99250.97;5052843;28;20024;-66
2021/09/23 01:17:26;;;;;;;6.78;4.10;;;;;;;5.98;93.66;99245.72;5044137;28;20333;-66
2021/09/23 01:19:52;;;;;;;8.73;4.10;;;;;;;5.95;94.00;99253.53;5044193;28;20021;-66
2021/09/23 01:22:18;;;;;;;6.18;3.90;;;;;;;5.85;93.52;99252.56;5044083;28;20089;-66
2021/09/23 01:24:44;;;;;;;7.03;3.95;;;;;;;5.94;93.79;99251.75;5063326;28;20044;-66
2021/09/23 01:27:11;;;;;;;5.68;3.70;;;;;;;5.99;93.85;99255.31;5058703;28;20021;-66
2021/09/23 01:29:38;;;;;;;6.97;4.35;;;;;;;5.86;93.47;99245.59;5048236;28;20100;-66
2021/09/23 01:32:05;;;;;;;6.43;3.65;;;;;;;5.90;93.61;99244.75;5057730;28;20024;-66
2021/09/23 01:34:32;;;;;;;5.55;3.60;;;;;;;5.85;93.49;99236.00;5061632;28;20021;-66
2021/09/23 01:36:58;;;;;;;5.10;3.33;;;;;;;5.85;93.90;99236.88;5063316;28;20338;-66
2021/09/23 01:39:25;;;;;;;5.07;3.45;;;;;;;5.91;94.01;99241.28;5057158;28;20017;-66
2021/09/23 01:41:51;;;;;;;5.38;3.53;;;;;;;5.70;93.10;99235.84;5044274;28;20021;-66
2021/09/23 01:44:17;;;;;;;7.57;4.30;;;;;;;5.64;93.19;99225.34;5054866;28;20177;-66
2021/09/23 01:46:42;;;;;;;6.38;3.53;;;;;;;5.65;93.54;99221.84;5063201;28;20023;-67
2021/09/23 01:49:08;;;;;;;4.43;2.85;;;;;;;5.80;93.92;99222.00;5062952;28;20021;-66
2021/09/23 01:51:34;;;;;;;7.18;3.92;;;;;;;5.69;93.59;99218.41;5063165;28;20143;-66
2021/09/23 01:54:00;;;;;;;8.75;4.45;;;;;;;5.55;93.42;99214.81;5063051;28;20036;-66
2021/09/23 01:56:25;;;;;;;5.75;3.33;;;;;;;5.62;94.10;99211.38;5062362;28;20025;-66
2021/09/23 01:58:51;;;;;;;6.00;3.70;;;;;;;5.47;93.21;99213.88;5063065;28;20028;-66
2021/09/23 02:01:16;;;;;;;8.27;4.22;;;;;;;5.41;93.81;99214.66;5063088;28;20025;-66
2021/09/23 02:03:42;;;;;;;6.35;3.70;;;;;;;5.42;93.73;99212.94;5065118;28;20327;-66
2021/09/23 02:06:07;;;;;;;8.18;4.10;;;;;;;5.41;93.25;99205.97;5060848;28;20209;-66
2021/09/23 02:08:33;;;;;;;8.93;4.05;;;;;;;5.46;93.64;99204.28;5049482;28;20212;-66
2021/09/23 02:10:58;;;;;;;6.18;3.67;;;;;;;5.40;93.61;99193.75;5050579;28;20029;-66
2021/09/23 02:13:24;;;;;;;5.13;3.55;;;;;;;5.41;93.96;99192.94;5066975;28;20037;-66
2021/09/23 02:15:49;;;;;;;5.97;3.38;;;;;;;5.30;93.36;99189.31;5050199;28;20053;-67
2021/09/23 02:18:15;;;;;;;4.63;3.20;;;;;;;5.31;93.02;99191.09;5047695;28;20024;-66
2021/09/23 02:20:40;;;;;;;5.88;3.25;;;;;;;5.18;93.22;99186.56;5047577;28;20017;-66
2021/09/23 02:23:06;;;;;;;8.43;4.20;;;;;;;5.28;94.00;99183.22;5047660;28;20021;-66
2021/09/23 02:25:31;;;;;;;7.38;4.28;;;;;;;5.39;94.20;99166.81;5056245;28;20025;-66
2021/09/23 02:27:57;;;;;;;5.53;3.70;;;;;;;5.37;93.73;99178.97;5047564;28;20261;-66
2021/09/23 02:30:24;;;;;;;5.95;3.70;;;;;;;5.40;93.42;99173.78;5047399;28;20023;-66
2021/09/23 02:32:49;;;;;;;5.32;3.35;;;;;;;5.39;93.52;99165.91;5048527;28;20025;-66
2021/09/23 02:35:15;;;;;;;7.38;4.05;;;;;;;5.24;93.40;99160.53;5047193;28;20327;-66
2021/09/23 02:37:40;;;;;;;7.60;3.88;;;;;;;5.12;93.38;99165.66;5048455;28;20071;-66
2021/09/23 02:40:08;;;;;;;5.70;3.80;;;;;;;5.09;93.29;99160.41;5050587;28;20017;-66
2021/09/23 02:42:34;;;;;;;8.82;4.45;;;;;;;5.25;93.55;99157.09;5066535;28;20066;-66
2021/09/23 02:44:59;;;;;;;7.20;4.00;;;;;;;5.33;93.56;99156.31;5065742;28;20048;-66
2021/09/23 02:47:26;;;;;;;6.38;3.80;;;;;;;5.21;92.81;99150.06;5066561;28;20327;-66
2021/09/23 02:49:52;;;;;;;5.28;3.47;;;;;;;5.06;93.02;99155.16;5066633;28;20055;-66
2021/09/23 02:52:17;;;;;;;7.43;3.88;;;;;;;5.02;93.20;99154.25;5066862;28;20016;-66
2021/09/23 02:54:43;;;;;;;7.60;4.40;;;;;;;5.04;94.14;99156.88;5060607;28;20014;-66
2021/09/23 02:57:08;;;;;;;7.80;4.03;;;;;;;4.75;95.27;99148.72;5048039;28;20040;-66
2021/09/23 02:59:33;;;;;;;11.30;5.55;;;;;;;4.88;96.74;99139.31;5046983;28;20321;-66
2021/09/23 03:01:59;;;;;;;6.30;3.70;;;;;;;4.95;95.02;99146.31;5046904;28;20025;-66
2021/09/23 03:04:24;;;;;;;7.28;4.90;;;;;;;4.84;94.27;99142.75;5046697;28;20372;-66
2021/09/23 03:06:50;;;;;;;10.13;4.15;;;;;;;4.80;93.70;99138.31;5059670;28;20029;-66
2021/09/23 03:09:15;;;;;;;6.50;3.85;;;;;;;4.83;93.92;99147.06;5058539;28;20286;-66
2021/09/23 03:11:42;;;;;;;6.78;3.88;;;;;;;4.92;94.59;99136.75;5049128;28;20098;-66
2021/09/23 03:14:08;;;;;;;6.90;4.13;;;;;;;5.02;94.01;99135.09;5065412;28;20028;-66
2021/09/23 03:16:33;;;;;;;5.68;3.33;;;;;;;5.04;93.09;99120.34;5065276;28;20212;-66
2021/09/23 03:18:58;;;;;;;7.80;4.22;;;;;;;4.81;93.50;99119.22;5061375;28;20045;-66
2021/09/23 03:21:24;;;;;;;8.32;4.60;;;;;;;4.83;93.37;99114.88;5052624;28;20028;-66
2021/09/23 03:23:49;;;;;;;7.05;3.72;;;;;;;4.87;93.32;99111.47;5057427;28;20212;-66
2021/09/23 03:26:15;;;;;;;9.85;3.60;;;;;;;4.80;93.05;99104.41;5046295;28;20021;-66
2021/09/23 03:28:40;;;;;;;9.57;4.30;;;;;;;4.82;93.08;99092.28;5045293;28;20028;-66
2021/09/23 03:31:06;;;;;;;11.80;4.03;;;;;;;4.91;93.44;99084.56;5046230;28;20340;-66
2021/09/23 03:33:31;;;;;;;8.48;3.65;;;;;;;4.64;92.92;99079.03;5057932;28;20368;-66
2021/09/23 03:35:57;;;;;;;7.28;3.70;;;;;;;4.69;93.48;99085.19;5065617;28;20312;-66
2021/09/23 03:38:22;;;;;;;7.50;4.22;;;;;;;4.75;93.52;99075.72;5055534;28;20025;-66
2021/09/23 03:40:49;;;;;;;7.93;4.15;;;;;;;4.74;93.38;99083.53;5046103;28;20107;-66
2021/09/23 03:43:16;;;;;;;7.47;4.45;;;;;;;4.66;93.98;99079.94;5046056;28;20017;-66
2021/09/23 03:45:42;;;;;;;7.50;4.05;;;;;;;4.73;93.54;99073.94;5054068;28;20074;-66
2021/09/23 03:48:08;;;;;;;5.78;3.85;;;;;;;4.59;93.46;99078.13;5046000;28;20372;-66
2021/09/23 03:50:33;;;;;;;10.23;4.90;;;;;;;4.62;93.91;99075.56;5054656;28;20063;-66
2021/09/23 03:52:59;;;;;;;5.35;3.58;;;;;;;4.71;93.99;99076.53;5053240;28;20017;-66
2021/09/23 03:55:25;;;;;;;6.82;4.13;;;;;;;4.75;93.27;99069.63;5045757;28;20021;-66
2021/09/23 03:57:50;;;;;;;7.35;3.90;;;;;;;4.77;92.94;99073.13;5047014;28;20194;-66
2021/09/23 04:00:20;;;;;;;6.97;4.05;;;;;;;4.77;93.19;99070.53;5045785;28;20024;-66
2021/09/23 04:02:46;;;;;;;10.77;4.57;;;;;;;4.56;92.90;99075.50;5046167;28;20296;-66
2021/09/23 04:05:11;;;;;;;7.90;4.38;;;;;;;4.53;93.06;99076.34;5045629;28;20364;-66
2021/09/23 04:07:37;;;;;;;9.50;4.53;;;;;;;4.38;92.88;99065.72;5058078;28;20017;-66
2021/09/23 04:10:03;;;;;;;7.68;4.47;;;;;;;4.23;93.35;99063.81;5064939;28;20193;-66
2021/09/23 04:12:29;;;;;;;7.13;4.43;;;;;;;4.32;94.42;99063.06;5064829;28;20045;-66
2021/09/23 04:14:54;;;;;;;7.22;4.30;;;;;;;4.37;93.81;99050.97;5065035;28;20334;-66
2021/09/23 04:17:21;;;;;;;9.88;4.45;;;;;;;4.27;93.89;99062.09;5065102;28;20323;-66
2021/09/23 04:19:46;;;;;;;8.75;4.03;;;;;;;4.35;93.77;99055.28;5063292;28;20025;-66
2021/09/23 04:22:12;;;;;;;7.35;4.22;;;;;;;4.31;93.65;99041.31;5058534;28;20021;-66
2021/09/23 04:24:37;;;;;;;7.20;4.70;;;;;;;4.24;94.13;99034.28;5064806;28;20019;-66
2021/09/23 04:27:03;;;;;;;9.20;4.70;;;;;;;4.19;93.58;99033.38;5045351;28;20025;-66
2021/09/23 04:29:29;;;;;;;6.38;4.40;;;;;;;4.21;93.75;99033.41;5045448;28;20331;-66
2021/09/23 04:31:54;;;;;;;15.35;5.05;;;;;;;4.18;94.04;99039.44;5052119;28;20036;-66
2021/09/23 04:34:20;;;;;;;8.40;4.47;;;;;;;4.27;95.08;99049.09;5050402;28;20320;-66
2021/09/23 04:36:46;;;;;;;9.82;4.68;;;;;;;4.23;95.14;99058.63;5055621;28;20021;-66
2021/09/23 04:39:12;;;;;;;8.18;4.63;;;;;;;4.34;94.61;99057.00;5047375;28;20021;-66
2021/09/23 04:41:37;;;;;;;11.38;7.13;;;;;;;4.37;94.04;99051.81;5045137;28;20041;-66
2021/09/23 04:44:03;;;;;;;7.97;4.63;;;;;;;4.10;94.01;99051.50;5044200;28;20080;-66
2021/09/23 04:46:29;;;;;;;11.52;4.32;;;;;;;4.12;93.57;99049.78;5045043;28;20088;-66
2021/09/23 04:48:54;;;;;;;8.35;4.13;;;;;;;4.17;93.78;99053.31;5045185;28;20376;-66
2021/09/23 04:51:22;;;;;;;8.15;4.82;;;;;;;3.91;93.62;99062.53;5045230;28;20033;-66
2021/09/23 04:53:47;;;;;;;7.57;4.30;;;;;;;3.91;94.91;99054.72;5044903;28;20068;-66
2021/09/23 04:56:13;;;;;;;9.43;5.55;;;;;;;4.09;96.48;99051.47;5045042;28;20021;-66
2021/09/23 04:58:38;;;;;;;7.75;4.80;;;;;;;4.21;96.24;99049.03;5044740;28;20025;-66
2021/09/23 05:01:04;;;;;;;7.55;4.28;;;;;;;4.21;95.16;99039.47;5044645;28;20025;-66
2021/09/23 05:03:29;;;;;;;8.75;4.50;;;;;;;4.18;94.33;99034.22;5044512;28;20048;-66
2021/09/23 05:05:55;;;;;;;6.95;4.20;;;;;;;4.09;94.11;99028.91;5044679;28;20348;-66
2021/09/23 05:08:20;;;;;;;8.85;4.78;;;;;;;4.17;93.91;99042.91;5044448;28;20063;-66
2021/09/23 05:10:46;;;;;;;8.32;5.07;;;;;;;4.13;93.14;99038.53;5044575;28;20033;-66
2021/09/23 05:13:11;;;;;;;8.07;4.80;;;;;;;4.16;93.34;99035.06;5044235;28;20052;-66
2021/09/23 05:15:39;;;;;;;7.20;4.10;;;;;;;4.16;93.35;99035.94;5044386;28;20056;-66
2021/09/23 05:18:05;;;;;;;7.05;3.95;;;;;;;4.24;93.25;99031.69;5044506;28;20025;-66
2021/09/23 05:20:30;;;;;;;7.25;4.43;;;;;;;4.14;93.34;99027.22;5044412;28;20225;-66
2021/09/23 05:22:56;;;;;;;6.65;3.65;;;;;;;4.21;92.42;99025.59;5044628;28;20048;-66
2021/09/23 05:25:21;;;;;;;7.80;4.05;;;;;;;4.17;92.29;99027.28;5044263;28;20021;-66
2021/09/23 05:27:47;;;;;;;9.15;4.18;;;;;;;4.05;93.20;99021.06;5044426;28;20080;-66
2021/09/23 05:30:12;;;;;;;7.07;4.05;;;;;;;4.07;93.20;99019.31;5044356;28;20025;-66
2021/09/23 05:32:38;;;;;;;7.40;4.07;;;;;;;4.10;93.73;99012.44;5044354;28;20036;-66
2021/09/23 05:35:05;;;;;;;8.82;4.80;;;;;;;4.05;94.29;99015.84;5044241;28;20084;-66
2021/09/23 05:37:30;;;;;;;7.25;4.43;;;;;;;4.12;94.13;99017.66;5043706;28;20110;-66
2021/09/23 05:39:56;;;;;;;10.50;4.65;;;;;;;4.13;93.85;99020.28;5044187;28;20021;-66
2021/09/23 05:42:21;;;;;;;9.90;5.25;;;;;;;4.23;94.49;99022.13;5044129;28;20252;-66
2021/09/23 05:44:47;;;;;;;8.15;4.55;;;;;;;3.97;93.90;99023.56;5044228;28;20022;-66
2021/09/23 05:47:12;;;;;;;7.20;4.68;;;;;;;3.99;94.09;99032.25;5044158;28;20028;-66
2021/09/23 05:49:38;;;;;;;7.88;4.65;;;;;;;4.12;95.47;99034.13;5044286;28;20081;-66
2021/09/23 05:52:03;;;;;;;8.63;4.53;;;;;;;4.56;94.95;99031.19;5044291;28;20026;-66
2021/09/23 05:54:30;;;;;;;7.72;4.15;;;;;;;4.80;93.10;99034.91;5044127;28;20033;-66
2021/09/23 05:56:55;;;;;;;6.45;4.28;;;;;;;5.03;92.74;99035.97;5043024;28;20021;-66
2021/09/23 05:59:24;;;;;;;6.30;3.90;;;;;;;5.29;91.49;99031.88;5044450;28;20093;-66
2021/09/23 06:01:51;;;;;;;12.68;3.90;;;;;;;5.54;91.24;99030.31;5044425;28;20029;-66
2021/09/23 06:04:16;;;;;;;7.90;4.80;;;;;;;5.55;91.00;99027.72;5044767;28;20018;-66
2021/09/23 06:06:41;;;;;;;6.10;3.97;;;;;;;5.93;89.37;99035.78;5044869;28;20032;-66
2021/09/23 06:09:07;;;;;;;6.97;3.95;;;;;;;6.25;88.15;99039.44;5043898;28;20029;-66
2021/09/23 06:11:35;;;;;;;7.50;3.83;;;;;;;6.67;87.32;99044.78;5045451;28;20037;-66
2021/09/23 06:14:00;;;;;;;5.97;3.80;;;;;;;7.03;85.94;99050.13;5045612;28;20082;-66
2021/09/23 06:16:26;;;;;;;6.68;3.60;;;;;;;7.36;84.62;99054.47;5044390;28;20025;-66
2021/09/23 06:18:51;;;;;;;8.18;4.03;;;;;;;7.56;82.20;99048.34;5045535;28;20308;-66
2021/09/23 06:21:17;;;;;;;6.30;3.78;;;;;;;8.06;82.19;99041.28;5045567;28;20087;-66
2021/09/23 06:23:42;;;;;;;8.43;3.63;;;;;;;8.56;79.71;99039.38;5045645;28;20014;-66
2021/09/23 06:26:07;;;;;;;6.32;3.70;;;;;;;8.85;78.94;99035.72;5045381;28;20041;-66
2021/09/23 06:28:33;;;;;;;8.93;3.85;;;;;;;8.45;79.30;99035.91;5043860;28;20028;-66
2021/09/23 06:30:59;;;;;;;6.72;3.38;;;;;;;9.23;78.15;99018.78;5044914;28;20017;-66
2021/09/23 06:33:25;;;;;;;5.72;3.45;;;;;;;9.97;75.85;99025.97;5043525;28;20028;-66
2021/09/23 06:35:50;;;;;;;4.93;3.30;;;;;;;10.41;73.89;99023.75;5044560;28;20029;-66
2021/09/23 06:38:16;;;;;;;5.15;3.28;;;;;;;10.87;72.80;99024.84;5044406;28;20025;-66
2021/09/23 06:40:41;;;;;;;9.52;3.80;;;;;;;11.24;71.75;99036.59;5044411;28;20256;-66
2021/09/23 06:43:07;;;;;;;6.55;3.78;;;;;;;11.45;71.89;99036.22;5043867;28;20017;-67
2021/09/23 06:45:32;;;;;;;7.57;3.60;;;;;;;12.04;71.56;99032.56;5043765;28;20025;-67
2021/09/23 06:47:58;;;;;;;11.23;4.30;;;;;;;12.48;69.52;99038.75;5043605;28;20029;-67
2021/09/23 06:50:23;;;;;;;6.18;3.88;;;;;;;12.83;68.24;99033.59;5044819;28;20021;-67
2021/09/23 06:52:49;;;;;;;7.78;3.50;;;;;;;12.45;69.51;99030.88;5046886;28;20221;-67
2021/09/23 06:55:14;;;;;;;8.05;3.78;;;;;;;13.18;68.40;99024.88;5046746;28;20100;-67
2021/09/23 06:57:40;;;;;;;5.50;3.30;;;;;;;13.84;65.87;99022.31;5046734;28;20040;-67
2021/09/23 07:00:07;;;;;;;5.90;3.35;;;;;;;14.21;65.39;99020.44;5046727;28;20368;-67
2021/09/23 07:02:32;;;;;;;8.25;4.10;;;;;;;14.13;63.84;99030.34;5046514;28;20049;-67
2021/09/23 07:04:58;;;;;;;9.55;4.40;;;;;;;14.29;64.93;99037.00;5046685;28;20014;-67
2021/09/23 07:07:23;;;;;;;12.68;4.40;;;;;;;14.80;65.04;99040.81;5046558;28;20068;-67
2021/09/23 07:09:49;;;;;;;8.70;3.85;;;;;;;15.39;62.25;99042.53;5046607;28;20029;-67
2021/09/23 07:12:14;;;;;;;11.30;4.10;;;;;;;15.72;63.02;99036.09;5046484;28;20041;-67
2021/09/23 07:14:40;;;;;;;8.50;4.28;;;;;;;14.97;63.67;99039.38;5046459;28;20043;-67
2021/09/23 07:17:05;;;;;;;7.32;4.30;;;;;;;15.06;65.65;99033.81;5046498;28;20048;-67
2021/09/23 07:19:31;;;;;;;8.82;4.13;;;;;;;15.78;64.65;99035.91;5046379;28;20084;-67
2021/09/23 07:21:58;;;;;;;8.52;4.22;;;;;;;16.63;61.82;99034.63;5046371;28;20021;-67
2021/09/23 07:24:23;;;;;;;9.65;4.35;;;;;;;17.33;60.56;99027.44;5045208;28;20041;-67
2021/09/23 07:26:49;;;;;;;6.85;4.22;;;;;;;17.59;58.38;99029.09;5046312;28;20060;-67
2021/09/23 07:29:15;;;;;;;6.93;4.05;;;;;;;17.50;60.94;99029.47;5046366;28;20056;-67
2021/09/23 07:31:42;;;;;;;8.88;5.07;;;;;;;17.82;59.22;99031.66;5046179;28;20018;-67
2021/09/23 07:34:08;;;;;;;9.50;5.70;;;;;;;18.12;57.11;99027.69;5046401;28;20212;-67
2021/09/23 07:36:33;;;;;;;8.02;4.65;;;;;;;18.03;60.11;99033.44;5046172;28;20024;-67
2021/09/23 07:38:59;;;;;;;11.55;5.97;;;;;;;18.23;58.61;99033.44;5046172;28;20017;-67
2021/09/23 07:41:24;;;;;;;7.35;4.85;;;;;;;19.08;57.19;99031.31;5046119;28;20083;-67
2021/09/23 07:43:50;;;;;;;10.80;5.75;;;;;;;18.72;58.18;99033.00;5046186;28;20017;-67
2021/09/23 07:46:15;;;;;;;8.48;5.55;;;;;;;18.83;56.85;99041.38;5046105;28;20304;-67
2021/09/23 07:48:40;;;;;;;10.45;5.80;;;;;;;19.04;57.37;99030.56;5045835;28;20092;-67
2021/09/23 07:51:06;;;;;;;11.82;5.45;;;;;;;19.25;58.18;99034.03;5045992;28;20017;-67
2021/09/23 07:53:32;;;;;;;11.43;5.80;;;;;;;18.70;59.83;99041.06;5045869;28;20084;-67
2021/09/23 07:55:58;;;;;;;10.68;6.20;;;;;;;19.35;58.56;99031.81;5046248;28;20022;-67
2021/09/23 07:58:23;;;;;;;10.57;5.30;;;;;;;18.93;59.07;99032.03;5046179;28;20017;-67
2021/09/23 08:00:49;;;;;;;9.57;5.03;;;;;;;19.06;60.85;99027.84;5045595;28;20024;-67
2021/09/23 08:03:14;;;;;;;8.65;4.90;;;;;;;20.27;57.22;99023.56;5046165;28;20022;-67
2021/09/23 08:05:39;;;;;;;10.75;5.28;;;;;;;19.43;58.94;99016.31;5045204;28;20426;-65
2021/09/23 08:08:05;;;;;;;9.93;5.18;;;;;;;19.89;58.70;99024.63;5046536;28;20124;-65
2021/09/23 08:10:31;;;;;;;10.07;4.90;;;;;;;21.17;56.51;99021.28;5046441;28;20093;-65
2021/09/23 08:12:57;;;;;;;16.35;5.43;;;;;;;21.40;55.15;99024.50;5046464;28;20109;-65
2021/09/23 08:15:22;;;;;;;11.52;5.13;;;;;;;21.07;55.50;99012.06;5046900;28;20273;-65
2021/09/23 08:17:47;;;;;;;12.88;5.93;;;;;;;20.43;56.87;99015.59;5046779;28;20024;-65
2021/09/23 08:20:13;;;;;;;12.55;5.68;;;;;;;20.44;57.53;99010.16;5046633;28;20190;-65
2021/09/23 08:22:39;;;;;;;9.55;5.07;;;;;;;20.96;57.13;99011.81;5046791;28;20025;-65
2021/09/23 08:25:05;;;;;;;10.77;5.85;;;;;;;22.62;53.12;99008.22;5047229;28;20044;-65
2021/09/23 08:27:31;;;;;;;8.48;5.40;;;;;;;23.38;50.05;99000.69;5047300;28;20209;-65
2021/09/23 08:29:57;;;;;;;11.48;5.13;;;;;;;23.85;48.92;99001.97;5047081;28;20017;-65
2021/09/23 08:32:22;;;;;;;10.75;5.45;;;;;;;24.12;48.70;99004.66;5047276;28;20017;-65
2021/09/23 08:34:49;;;;;;;10.02;5.18;;;;;;;23.86;51.04;99009.09;5047221;28;20022;-65
2021/09/23 08:37:15;;;;;;;8.32;5.60;;;;;;;23.74;52.38;99009.91;5047022;28;20089;-65
2021/09/23 08:39:41;;;;;;;15.38;6.38;;;;;;;24.31;50.42;99011.38;5046960;28;20078;-65
2021/09/23 08:42:07;;;;;;;14.55;6.88;;;;;;;24.46;50.73;99015.66;5046784;28;20059;-65
2021/09/23 08:44:32;;;;;;;9.00;5.70;;;;;;;24.75;51.29;99011.88;5047046;28;20025;-66
2021/09/23 08:46:58;;;;;;;11.20;6.90;;;;;;;23.94;52.95;99017.50;5046698;28;20017;-65
2021/09/23 08:49:23;;;;;;;10.65;6.13;;;;;;;23.45;53.46;99018.16;5046777;28;20025;-65
2021/09/23 08:51:48;;;;;;;10.73;6.07;;;;;;;23.46;54.08;99020.72;5046224;28;20041;-65
2021/09/23 08:54:17;;;;;;;9.15;5.78;;;;;;;23.98;52.73;99010.97;5046104;28;20209;-66
2021/09/23 08:56:43;;;;;;;9.73;6.15;;;;;;;23.37;54.08;99005.19;5045968;28;20092;-65
2021/09/23 08:59:08;;;;;;;12.75;6.03;;;;;;;23.82;52.52;99007.53;5045968;28;20028;-65
2021/09/23 09:01:41;;;;;;;12.50;6.18;;;;;;;24.29;52.08;99009.72;5046227;28;20018;-65
2021/09/23 09:04:07;;;;;;;13.85;6.60;;;;;;;24.55;52.23;99001.56;5046312;28;20030;-65
2021/09/23 09:06:33;;;;;;;12.98;7.07;;;;;;;24.66;49.97;99000.88;5046940;28;20032;-65
2021/09/23 09:08:58;;;;;;;12.88;6.10;;;;;;;24.98;50.82;98997.63;5046457;28;20021;-65
2021/09/23 09:11:24;;;;;;;11.60;7.68;;;;;;;25.16;50.42;99000.81;5046442;28;20032;-65
2021/09/23 09:13:52;;;;;;;12.40;7.00;;;;;;;25.19;49.40;98996.03;5045343;28;20049;-65
2021/09/23 09:16:28;;;;;;;12.52;6.50;;;;;;;25.48;48.54;99002.03;5046246;28;20033;-65
2021/09/23 09:18:58;;;;;;;14.18;7.25;;;;;;;25.57;49.40;98989.72;5046158;28;20048;-65
2021/09/23 09:21:26;;;;;;;11.50;7.80;;;;;;;25.24;50.10;98988.50;5045202;28;20317;-65
2021/09/23 09:24:00;;;;;;;19.20;8.68;;;;;;;25.07;51.90;98991.56;5045910;28;20382;-65
2021/09/23 09:26:25;;;;;;;16.05;8.18;;;;;;;25.23;50.96;98986.78;5045740;28;20021;-65
2021/09/23 09:28:53;;;;;;;17.67;8.18;;;;;;;25.23;51.88;98986.78;5045964;28;20268;-65
2021/09/23 09:31:19;;;;;;;17.13;7.95;;;;;;;25.54;48.46;98984.56;5045868;28;20021;-65
2021/09/23 09:33:48;;;;;;;14.23;7.88;;;;;;;25.50;49.42;98985.75;5045972;28;20316;-65
2021/09/23 09:36:24;;;;;;;13.00;8.55;;;;;;;25.57;49.47;98984.31;5045637;28;20048;-65
2021/09/23 09:38:50;;;;;;;12.82;7.95;;;;;;;24.95;48.89;98980.81;5046121;28;20336;-65
2021/09/23 09:41:21;;;;;;;16.90;6.28;;;;;;;25.33;46.92;98984.31;5044599;28;20068;-65
2021/09/23 09:43:49;;;;;;;8.55;4.70;;;;;;;25.41;47.14;98979.22;5045819;28;20224;-65
2021/09/23 09:46:36;;;;;;;15.68;5.95;;;;;;;25.15;46.23;98989.16;5045693;28;20088;-65
2021/09/23 09:49:02;;;;;;;13.73;6.07;;;;;;;25.38;46.25;98989.34;5046154;28;20096;-65
2021/09/23 09:51:38;;;;;;;16.00;7.25;;;;;;;24.58;46.90;98993.28;5045755;28;20267;-65
2021/09/23 09:54:05;;;;;;;9.63;5.28;;;;;;;25.20;46.87;98987.00;5045591;28;20044;-65
2021/09/23 09:56:30;;;;;;;11.80;6.20;;;;;;;25.56;48.66;98994.25;5045616;28;20049;-65
2021/09/23 09:59:12;;;;;;;12.00;6.20;;;;;;;25.61;47.15;98994.78;5045454;28;20033;-65
2021/09/23 10:01:41;;;;;;;12.88;7.38;;;;;;;25.13;49.15;98996.47;5045636;28;20132;-65
2021/09/23 10:04:08;;;;;;;13.38;7.45;;;;;;;25.08;50.00;98987.91;5045383;28;20026;-65
2021/09/23 10:06:34;;;;;;;17.33;8.45;;;;;;;25.25;49.92;98995.59;5045698;28;20032;-65
2021/09/23 10:09:00;;;;;;;16.48;9.05;;;;;;;24.69;49.93;99004.22;5045835;28;20017;-65
2021/09/23 10:11:26;;;;;;;16.25;8.77;;;;;;;24.69;49.07;99001.53;5045760;28;20075;-65
2021/09/23 10:13:53;;;;;;;16.85;9.95;;;;;;;24.80;47.50;99003.44;5045728;28;20048;-65
2021/09/23 10:16:20;;;;;;;18.33;10.38;;;;;;;24.74;48.79;98988.56;5045725;28;20119;-66
2021/09/23 10:18:47;;;;;;;12.18;7.90;;;;;;;24.86;49.72;98993.09;5045631;28;20043;-66
2021/09/23 10:21:13;;;;;;;15.95;8.30;;;;;;;24.89;49.30;98992.00;5045642;28;20317;-66
2021/09/23 10:23:40;;;;;;;11.73;7.22;;;;;;;25.01;49.55;98992.00;5044712;28;20022;-65
2021/09/23 10:26:08;;;;;;;15.57;7.95;;;;;;;24.65;50.33;98994.59;5049647;28;20036;-65
2021/09/23 10:28:34;;;;;;;15.90;8.10;;;;;;;24.75;49.72;98990.31;5049663;28;20037;-65
2021/09/23 10:31:00;;;;;;;16.35;7.60;;;;;;;24.66;50.67;98992.78;5049331;28;20075;-65
2021/09/23 10:33:27;;;;;;;12.15;6.70;;;;;;;25.00;50.01;98979.50;5049455;28;20017;-65
2021/09/23 10:35:53;;;;;;;12.80;7.00;;;;;;;24.97;49.38;98971.63;5049352;28;20013;-65
2021/09/23 10:38:18;;;;;;;13.80;7.70;;;;;;;25.00;49.01;98966.03;5049243;28;20025;-65
2021/09/23 10:40:46;;;;;;;17.17;7.95;;;;;;;24.89;50.12;98960.56;5048985;28;20063;-65
2021/09/23 10:43:16;;;;;;;12.23;7.38;;;;;;;24.88;50.92;98975.00;5047870;28;20032;-65
2021/09/23 10:45:43;;;;;;;14.02;7.93;;;;;;;24.88;50.12;98964.25;5049345;28;20339;-65
2021/09/23 10:48:09;;;;;;;13.13;8.10;;;;;;;24.80;48.54;98972.00;5049443;28;20017;-65
2021/09/23 10:50:37;;;;;;;16.55;7.45;;;;;;;24.61;50.65;98966.16;5049123;28;20052;-65
2021/09/23 10:53:08;;;;;;;14.35;7.15;;;;;;;24.28;51.44;98957.78;5048974;28;20085;-65
2021/09/23 10:55:37;;;;;;;15.38;7.05;;;;;;;24.59;48.58;98951.97;5049058;28;20018;-65
2021/09/23 10:58:05;;;;;;;13.32;7.45;;;;;;;24.50;48.42;98947.22;5049057;28;20085;-65
2021/09/23 11:00:33;;;;;;;13.50;6.85;;;;;;;24.16;51.88;98950.53;5048513;28;20017;-65
2021/09/23 11:03:04;;;;;;;13.48;7.10;;;;;;;24.02;53.43;98945.28;5048270;28;20052;-65
2021/09/23 11:05:30;;;;;;;12.10;6.40;;;;;;;24.15;50.62;98942.56;5048415;28;20045;-65
2021/09/23 11:07:59;;;;;;;11.25;6.28;;;;;;;24.20;50.38;98938.59;5048245;28;20089;-65
2021/09/23 11:10:26;;;;;;;12.65;6.38;;;;;;;24.29;50.16;98924.50;5048471;28;20334;-65
2021/09/23 11:12:58;;;;;;;11.65;6.28;;;;;;;23.92;50.05;98924.44;5048275;28;20320;-65
2021/09/23 11:15:27;;;;;;;12.40;6.32;;;;;;;23.87;51.04;98924.75;5048320;28;20044;-65
2021/09/23 11:17:59;;;;;;;12.27;6.10;;;;;;;24.05;51.90;98918.16;5048177;28;20077;-65
2021/09/23 11:20:30;;;;;;;13.40;6.60;;;;;;;24.17;51.57;98906.53;5048032;28;20224;-65
2021/09/23 11:22:58;;;;;;;15.82;5.65;;;;;;;24.21;51.34;98902.69;5048355;28;20228;-65
2021/09/23 11:25:30;;;;;;;17.55;7.45;;;;;;;24.04;51.88;98900.28;5048244;28;20088;-65
2021/09/23 11:27:57;;;;;;;13.38;6.15;;;;;;;24.33;50.50;98885.66;5048338;28;20037;-65
2021/09/23 11:30:26;;;;;;;19.20;7.47;;;;;;;24.27;49.93;98888.75;5048120;28;20045;-65